sensor_id;sensor_type;location;lat;lon;timestamp;temperature;humidity
52495;DHT22;38405;53.212;5.660;2022-12-29T00:01:40;9.30;99.90
52495;DHT22;38405;53.212;5.660;2022-12-29T00:04:06;9.30;99.90
52495;DHT22;38405;53.212;5.660;2022-12-29T00:06:32;9.30;99.90
52495;DHT22;38405;53.212;5.660;2022-12-29T00:08:58;9.30;99.90
52495;DHT22;38405;53.212;5.660;2022-12-29T00:11:26;9.30;99.90
52495;DHT22;38405;53.212;5.660;2022-12-29T00:13:53;9.30;99.90
52495;DHT22;38405;53.212;5.660;2022-12-29T00:16:40;9.30;99.90
52495;DHT22;38405;53.212;5.660;2022-12-29T00:19:10;9.30;99.90
52495;DHT22;38405;53.212;5.660;2022-12-29T00:21:59;9.20;99.90
52495;DHT22;38405;53.212;5.660;2022-12-29T00:24:44;9.20;99.90
52495;DHT22;38405;53.212;5.660;2022-12-29T00:27:19;9.10;99.90
52495;DHT22;38405;53.212;5.660;2022-12-29T00:30:09;9.10;99.90
52495;DHT22;38405;53.212;5.660;2022-12-29T00:32:53;9.10;99.90
52495;DHT22;38405;53.212;5.660;2022-12-29T00:35:42;9.10;99.90
52495;DHT22;38405;53.212;5.660;2022-12-29T00:38:10;9.10;99.90
52495;DHT22;38405;53.212;5.660;2022-12-29T00:40:54;9.20;99.90
52495;DHT22;38405;53.212;5.660;2022-12-29T00:43:43;9.30;99.90
52495;DHT22;38405;53.212;5.660;2022-12-29T00:46:27;9.30;99.90
52495;DHT22;38405;53.212;5.660;2022-12-29T00:48:53;9.30;99.90
52495;DHT22;38405;53.212;5.660;2022-12-29T00:51:37;9.30;99.90
52495;DHT22;38405;53.212;5.660;2022-12-29T00:54:02;9.40;99.90
52495;DHT22;38405;53.212;5.660;2022-12-29T00:56:28;9.40;99.90
52495;DHT22;38405;53.212;5.660;2022-12-29T00:58:54;9.40;99.90
52495;DHT22;38405;53.212;5.660;2022-12-29T01:01:19;9.40;99.90
52495;DHT22;38405;53.212;5.660;2022-12-29T01:03:45;9.40;99.90
52495;DHT22;38405;53.212;5.660;2022-12-29T01:06:11;9.40;99.90
52495;DHT22;38405;53.212;5.660;2022-12-29T01:08:37;9.40;99.90
52495;DHT22;38405;53.212;5.660;2022-12-29T01:11:04;9.40;99.90
52495;DHT22;38405;53.212;5.660;2022-12-29T01:13:30;9.40;99.90
52495;DHT22;38405;53.212;5.660;2022-12-29T01:15:56;9.40;99.90
52495;DHT22;38405;53.212;5.660;2022-12-29T01:18:22;9.40;99.90
52495;DHT22;38405;53.212;5.660;2022-12-29T01:20:48;9.40;99.90
52495;DHT22;38405;53.212;5.660;2022-12-29T01:23:14;9.50;99.90
52495;DHT22;38405;53.212;5.660;2022-12-29T01:25:40;9.40;99.90
52495;DHT22;38405;53.212;5.660;2022-12-29T01:28:05;9.50;99.90
52495;DHT22;38405;53.212;5.660;2022-12-29T01:30:34;9.40;99.90
52495;DHT22;38405;53.212;5.660;2022-12-29T01:33:00;9.40;99.90
52495;DHT22;38405;53.212;5.660;2022-12-29T01:35:26;9.30;99.90
52495;DHT22;38405;53.212;5.660;2022-12-29T01:37:52;9.30;99.90
52495;DHT22;38405;53.212;5.660;2022-12-29T01:40:17;9.40;99.90
52495;DHT22;38405;53.212;5.660;2022-12-29T01:42:43;9.40;99.90
52495;DHT22;38405;53.212;5.660;2022-12-29T01:45:14;9.40;99.90
52495;DHT22;38405;53.212;5.660;2022-12-29T01:47:53;9.40;99.90
52495;DHT22;38405;53.212;5.660;2022-12-29T01:50:27;9.50;99.90
52495;DHT22;38405;53.212;5.660;2022-12-29T01:53:21;9.50;99.90
52495;DHT22;38405;53.212;5.660;2022-12-29T01:55:51;9.50;99.90
52495;DHT22;38405;53.212;5.660;2022-12-29T01:58:20;9.40;99.90
52495;DHT22;38405;53.212;5.660;2022-12-29T02:00:47;9.50;99.90
52495;DHT22;38405;53.212;5.660;2022-12-29T02:03:13;9.40;99.90
52495;DHT22;38405;53.212;5.660;2022-12-29T02:08:20;9.40;99.90
52495;DHT22;38405;53.212;5.660;2022-12-29T02:10:47;9.50;99.90
52495;DHT22;38405;53.212;5.660;2022-12-29T02:13:16;9.50;99.90
52495;DHT22;38405;53.212;5.660;2022-12-29T02:15:48;9.50;99.90
52495;DHT22;38405;53.212;5.660;2022-12-29T02:18:35;9.50;99.90
52495;DHT22;38405;53.212;5.660;2022-12-29T02:32:11;9.50;99.90
52495;DHT22;38405;53.212;5.660;2022-12-29T02:34:50;9.40;99.90
52495;DHT22;38405;53.212;5.660;2022-12-29T02:37:23;9.40;99.90
52495;DHT22;38405;53.212;5.660;2022-12-29T02:40:23;9.30;99.90
52495;DHT22;38405;53.212;5.660;2022-12-29T02:42:55;9.30;99.90
52495;DHT22;38405;53.212;5.660;2022-12-29T02:48:20;9.30;99.90
52495;DHT22;38405;53.212;5.660;2022-12-29T02:53:21;9.20;99.90
52495;DHT22;38405;53.212;5.660;2022-12-29T02:56:08;9.30;99.90
52495;DHT22;38405;53.212;5.660;2022-12-29T02:58:34;9.30;99.90
52495;DHT22;38405;53.212;5.660;2022-12-29T03:04:10;9.30;99.90
52495;DHT22;38405;53.212;5.660;2022-12-29T03:06:41;9.30;99.90
52495;DHT22;38405;53.212;5.660;2022-12-29T03:15:22;9.40;99.90
52495;DHT22;38405;53.212;5.660;2022-12-29T03:21:05;9.30;99.90
52495;DHT22;38405;53.212;5.660;2022-12-29T03:23:36;9.20;99.90
52495;DHT22;38405;53.212;5.660;2022-12-29T03:26:06;9.20;99.90
52495;DHT22;38405;53.212;5.660;2022-12-29T03:28:38;9.20;99.90
52495;DHT22;38405;53.212;5.660;2022-12-29T03:31:06;9.10;99.90
52495;DHT22;38405;53.212;5.660;2022-12-29T03:33:34;9.10;99.90
52495;DHT22;38405;53.212;5.660;2022-12-29T03:36:04;9.10;99.90
52495;DHT22;38405;53.212;5.660;2022-12-29T03:41:01;8.90;99.90
52495;DHT22;38405;53.212;5.660;2022-12-29T03:43:29;8.80;99.90
52495;DHT22;38405;53.212;5.660;2022-12-29T03:45:55;8.80;99.90
52495;DHT22;38405;53.212;5.660;2022-12-29T03:48:20;8.80;99.90
52495;DHT22;38405;53.212;5.660;2022-12-29T03:50:46;8.80;99.90
52495;DHT22;38405;53.212;5.660;2022-12-29T03:53:12;8.70;99.90
52495;DHT22;38405;53.212;5.660;2022-12-29T03:55:37;8.70;99.90
52495;DHT22;38405;53.212;5.660;2022-12-29T03:58:03;8.80;99.90
52495;DHT22;38405;53.212;5.660;2022-12-29T04:00:28;8.60;99.90
52495;DHT22;38405;53.212;5.660;2022-12-29T04:02:54;8.60;99.90
52495;DHT22;38405;53.212;5.660;2022-12-29T04:05:21;8.60;99.90
52495;DHT22;38405;53.212;5.660;2022-12-29T04:07:46;8.60;99.90
52495;DHT22;38405;53.212;5.660;2022-12-29T04:10:12;8.70;99.90
52495;DHT22;38405;53.212;5.660;2022-12-29T04:12:37;8.70;99.90
52495;DHT22;38405;53.212;5.660;2022-12-29T04:15:04;8.70;99.90
52495;DHT22;38405;53.212;5.660;2022-12-29T04:17:30;8.70;99.90
52495;DHT22;38405;53.212;5.660;2022-12-29T04:19:56;8.60;99.90
52495;DHT22;38405;53.212;5.660;2022-12-29T04:22:42;8.50;99.90
52495;DHT22;38405;53.212;5.660;2022-12-29T04:25:07;8.70;99.90
52495;DHT22;38405;53.212;5.660;2022-12-29T04:27:33;8.50;99.90
52495;DHT22;38405;53.212;5.660;2022-12-29T04:29:59;8.50;99.90
52495;DHT22;38405;53.212;5.660;2022-12-29T04:32:24;8.40;99.90
52495;DHT22;38405;53.212;5.660;2022-12-29T04:34:50;8.40;99.90
52495;DHT22;38405;53.212;5.660;2022-12-29T04:37:15;8.50;99.90
52495;DHT22;38405;53.212;5.660;2022-12-29T04:39:41;8.50;99.90
52495;DHT22;38405;53.212;5.660;2022-12-29T04:42:07;8.50;99.90
52495;DHT22;38405;53.212;5.660;2022-12-29T04:44:32;8.50;99.90
52495;DHT22;38405;53.212;5.660;2022-12-29T04:46:58;8.60;99.90
52495;DHT22;38405;53.212;5.660;2022-12-29T04:49:23;8.80;99.90
52495;DHT22;38405;53.212;5.660;2022-12-29T04:51:49;8.50;99.90
52495;DHT22;38405;53.212;5.660;2022-12-29T04:54:15;8.50;99.90
52495;DHT22;38405;53.212;5.660;2022-12-29T04:56:40;8.60;99.90
52495;DHT22;38405;53.212;5.660;2022-12-29T04:59:06;8.80;99.90
52495;DHT22;38405;53.212;5.660;2022-12-29T05:01:31;8.60;99.90
52495;DHT22;38405;53.212;5.660;2022-12-29T05:03:57;8.70;99.90
52495;DHT22;38405;53.212;5.660;2022-12-29T05:06:23;8.80;99.90
52495;DHT22;38405;53.212;5.660;2022-12-29T05:08:48;8.80;99.90
52495;DHT22;38405;53.212;5.660;2022-12-29T05:11:14;8.80;99.90
52495;DHT22;38405;53.212;5.660;2022-12-29T05:13:39;8.80;99.90
52495;DHT22;38405;53.212;5.660;2022-12-29T05:16:05;8.80;99.90
52495;DHT22;38405;53.212;5.660;2022-12-29T05:18:31;8.70;99.90
52495;DHT22;38405;53.212;5.660;2022-12-29T05:20:56;8.70;99.90
52495;DHT22;38405;53.212;5.660;2022-12-29T05:23:22;8.70;99.90
52495;DHT22;38405;53.212;5.660;2022-12-29T05:25:48;8.70;99.90
52495;DHT22;38405;53.212;5.660;2022-12-29T05:28:13;8.70;99.90
52495;DHT22;38405;53.212;5.660;2022-12-29T05:30:39;8.70;99.90
52495;DHT22;38405;53.212;5.660;2022-12-29T05:33:05;8.90;99.90
52495;DHT22;38405;53.212;5.660;2022-12-29T05:35:32;8.80;99.90
52495;DHT22;38405;53.212;5.660;2022-12-29T05:37:58;8.80;99.90
52495;DHT22;38405;53.212;5.660;2022-12-29T05:40:23;9.00;99.90
52495;DHT22;38405;53.212;5.660;2022-12-29T05:42:49;8.80;99.90
52495;DHT22;38405;53.212;5.660;2022-12-29T05:45:15;8.90;99.90
52495;DHT22;38405;53.212;5.660;2022-12-29T05:47:40;8.90;99.90
52495;DHT22;38405;53.212;5.660;2022-12-29T05:50:06;9.00;99.90
52495;DHT22;38405;53.212;5.660;2022-12-29T05:52:32;9.00;99.90
52495;DHT22;38405;53.212;5.660;2022-12-29T05:54:57;9.00;99.90
52495;DHT22;38405;53.212;5.660;2022-12-29T05:57:23;9.00;99.90
52495;DHT22;38405;53.212;5.660;2022-12-29T05:59:49;9.00;99.90
52495;DHT22;38405;53.212;5.660;2022-12-29T06:02:14;8.90;99.90
52495;DHT22;38405;53.212;5.660;2022-12-29T06:04:40;9.00;99.90
52495;DHT22;38405;53.212;5.660;2022-12-29T06:07:05;8.80;99.90
52495;DHT22;38405;53.212;5.660;2022-12-29T06:09:31;8.80;99.90
52495;DHT22;38405;53.212;5.660;2022-12-29T06:11:57;8.80;99.90
52495;DHT22;38405;53.212;5.660;2022-12-29T06:14:22;8.80;99.90
52495;DHT22;38405;53.212;5.660;2022-12-29T06:16:48;8.80;99.90
52495;DHT22;38405;53.212;5.660;2022-12-29T06:19:13;8.70;99.90
52495;DHT22;38405;53.212;5.660;2022-12-29T06:21:39;8.80;99.90
52495;DHT22;38405;53.212;5.660;2022-12-29T06:24:05;8.50;99.90
52495;DHT22;38405;53.212;5.660;2022-12-29T06:26:31;8.50;99.90
52495;DHT22;38405;53.212;5.660;2022-12-29T06:28:56;8.40;99.90
52495;DHT22;38405;53.212;5.660;2022-12-29T06:31:22;8.40;99.90
52495;DHT22;38405;53.212;5.660;2022-12-29T06:33:48;8.40;99.90
52495;DHT22;38405;53.212;5.660;2022-12-29T06:36:13;8.70;99.90
52495;DHT22;38405;53.212;5.660;2022-12-29T06:38:39;8.30;99.90
52495;DHT22;38405;53.212;5.660;2022-12-29T06:41:04;8.30;99.90
52495;DHT22;38405;53.212;5.660;2022-12-29T06:43:30;8.40;99.90
52495;DHT22;38405;53.212;5.660;2022-12-29T06:45:57;8.40;99.90
52495;DHT22;38405;53.212;5.660;2022-12-29T06:48:23;8.50;99.90
52495;DHT22;38405;53.212;5.660;2022-12-29T06:50:48;8.50;99.90
52495;DHT22;38405;53.212;5.660;2022-12-29T06:53:14;8.50;99.90
52495;DHT22;38405;53.212;5.660;2022-12-29T06:55:41;8.50;99.90
52495;DHT22;38405;53.212;5.660;2022-12-29T06:58:07;8.60;99.90
52495;DHT22;38405;53.212;5.660;2022-12-29T07:00:32;8.60;99.90
52495;DHT22;38405;53.212;5.660;2022-12-29T07:02:58;8.60;99.90
52495;DHT22;38405;53.212;5.660;2022-12-29T07:05:24;8.70;99.90
52495;DHT22;38405;53.212;5.660;2022-12-29T07:07:53;8.80;99.90
52495;DHT22;38405;53.212;5.660;2022-12-29T07:10:19;8.70;99.90
52495;DHT22;38405;53.212;5.660;2022-12-29T07:12:44;8.70;99.90
52495;DHT22;38405;53.212;5.660;2022-12-29T07:15:10;8.70;99.90
52495;DHT22;38405;53.212;5.660;2022-12-29T07:17:36;8.80;99.90
52495;DHT22;38405;53.212;5.660;2022-12-29T07:20:01;8.80;99.90
52495;DHT22;38405;53.212;5.660;2022-12-29T07:22:27;8.80;99.90
52495;DHT22;38405;53.212;5.660;2022-12-29T07:24:53;8.80;99.90
52495;DHT22;38405;53.212;5.660;2022-12-29T07:27:18;8.90;99.90
52495;DHT22;38405;53.212;5.660;2022-12-29T07:29:44;8.90;99.90
52495;DHT22;38405;53.212;5.660;2022-12-29T07:32:10;8.90;99.90
52495;DHT22;38405;53.212;5.660;2022-12-29T07:34:35;8.80;99.90
52495;DHT22;38405;53.212;5.660;2022-12-29T07:37:01;8.80;99.90
52495;DHT22;38405;53.212;5.660;2022-12-29T07:39:26;8.80;99.90
52495;DHT22;38405;53.212;5.660;2022-12-29T07:41:52;8.80;99.90
52495;DHT22;38405;53.212;5.660;2022-12-29T07:44:18;8.70;99.90
52495;DHT22;38405;53.212;5.660;2022-12-29T07:46:43;8.80;99.90
52495;DHT22;38405;53.212;5.660;2022-12-29T07:49:09;8.80;99.90
52495;DHT22;38405;53.212;5.660;2022-12-29T07:51:34;8.80;99.90
52495;DHT22;38405;53.212;5.660;2022-12-29T07:54:00;8.80;99.90
52495;DHT22;38405;53.212;5.660;2022-12-29T07:56:26;8.80;99.90
52495;DHT22;38405;53.212;5.660;2022-12-29T07:58:52;8.80;99.90
52495;DHT22;38405;53.212;5.660;2022-12-29T08:01:18;8.80;99.90
52495;DHT22;38405;53.212;5.660;2022-12-29T08:03:43;8.80;99.90
52495;DHT22;38405;53.212;5.660;2022-12-29T08:06:10;8.80;99.90
52495;DHT22;38405;53.212;5.660;2022-12-29T08:08:36;8.80;99.90
52495;DHT22;38405;53.212;5.660;2022-12-29T08:11:02;8.80;99.90
52495;DHT22;38405;53.212;5.660;2022-12-29T08:13:27;8.80;99.90
52495;DHT22;38405;53.212;5.660;2022-12-29T08:15:53;8.80;99.90
52495;DHT22;38405;53.212;5.660;2022-12-29T08:18:18;8.90;99.90
52495;DHT22;38405;53.212;5.660;2022-12-29T08:20:44;8.90;99.90
52495;DHT22;38405;53.212;5.660;2022-12-29T08:23:10;8.80;99.90
52495;DHT22;38405;53.212;5.660;2022-12-29T08:25:35;9.00;99.90
52495;DHT22;38405;53.212;5.660;2022-12-29T08:28:01;8.80;99.90
52495;DHT22;38405;53.212;5.660;2022-12-29T08:30:26;8.80;99.90
52495;DHT22;38405;53.212;5.660;2022-12-29T08:32:52;8.70;99.90
52495;DHT22;38405;53.212;5.660;2022-12-29T08:35:18;8.60;99.90
52495;DHT22;38405;53.212;5.660;2022-12-29T08:37:43;8.60;99.90
52495;DHT22;38405;53.212;5.660;2022-12-29T08:40:09;8.60;99.90
52495;DHT22;38405;53.212;5.660;2022-12-29T08:42:35;8.60;99.90
52495;DHT22;38405;53.212;5.660;2022-12-29T08:45:01;8.50;99.90
52495;DHT22;38405;53.212;5.660;2022-12-29T08:47:27;8.70;99.90
52495;DHT22;38405;53.212;5.660;2022-12-29T08:49:52;8.80;99.90
52495;DHT22;38405;53.212;5.660;2022-12-29T08:52:18;8.80;99.90
52495;DHT22;38405;53.212;5.660;2022-12-29T08:54:44;8.80;99.90
52495;DHT22;38405;53.212;5.660;2022-12-29T08:57:10;8.80;99.90
52495;DHT22;38405;53.212;5.660;2022-12-29T08:59:36;8.80;99.90
52495;DHT22;38405;53.212;5.660;2022-12-29T09:02:01;8.80;99.90
52495;DHT22;38405;53.212;5.660;2022-12-29T09:04:27;8.80;99.90
52495;DHT22;38405;53.212;5.660;2022-12-29T09:06:53;8.70;99.90
52495;DHT22;38405;53.212;5.660;2022-12-29T09:09:20;8.80;99.90
52495;DHT22;38405;53.212;5.660;2022-12-29T09:11:46;8.70;99.90
52495;DHT22;38405;53.212;5.660;2022-12-29T09:14:12;8.80;99.90
52495;DHT22;38405;53.212;5.660;2022-12-29T09:16:38;8.80;99.90
52495;DHT22;38405;53.212;5.660;2022-12-29T09:19:04;8.70;99.90
52495;DHT22;38405;53.212;5.660;2022-12-29T09:21:30;8.80;99.90
52495;DHT22;38405;53.212;5.660;2022-12-29T09:23:56;8.70;99.90
52495;DHT22;38405;53.212;5.660;2022-12-29T09:26:22;8.70;99.90
52495;DHT22;38405;53.212;5.660;2022-12-29T09:28:47;8.80;99.90
52495;DHT22;38405;53.212;5.660;2022-12-29T09:31:13;8.70;99.90
52495;DHT22;38405;53.212;5.660;2022-12-29T09:33:39;8.70;99.90
52495;DHT22;38405;53.212;5.660;2022-12-29T09:36:05;8.60;99.90
52495;DHT22;38405;53.212;5.660;2022-12-29T09:38:31;8.60;99.90
52495;DHT22;38405;53.212;5.660;2022-12-29T09:41:20;8.60;99.90
52495;DHT22;38405;53.212;5.660;2022-12-29T09:49:03;8.50;99.90
52495;DHT22;38405;53.212;5.660;2022-12-29T09:51:32;8.50;99.90
52495;DHT22;38405;53.212;5.660;2022-12-29T09:54:05;8.70;99.90
52495;DHT22;38405;53.212;5.660;2022-12-29T09:56:37;8.60;99.90
52495;DHT22;38405;53.212;5.660;2022-12-29T09:59:09;8.70;99.90
52495;DHT22;38405;53.212;5.660;2022-12-29T10:01:45;8.70;99.90
52495;DHT22;38405;53.212;5.660;2022-12-29T10:04:12;9.00;99.90
52495;DHT22;38405;53.212;5.660;2022-12-29T10:09:33;8.70;99.90
52495;DHT22;38405;53.212;5.660;2022-12-29T10:14:32;8.80;99.90
52495;DHT22;38405;53.212;5.660;2022-12-29T10:24:55;8.90;99.90
52495;DHT22;38405;53.212;5.660;2022-12-29T10:27:27;8.90;99.90
52495;DHT22;38405;53.212;5.660;2022-12-29T10:29:56;9.00;99.90
52495;DHT22;38405;53.212;5.660;2022-12-29T10:34:55;8.90;99.90
52495;DHT22;38405;53.212;5.660;2022-12-29T10:40:40;9.00;99.90
52495;DHT22;38405;53.212;5.660;2022-12-29T10:43:24;9.00;99.90
52495;DHT22;38405;53.212;5.660;2022-12-29T10:45:53;9.00;99.90
52495;DHT22;38405;53.212;5.660;2022-12-29T10:48:27;9.00;99.90
52495;DHT22;38405;53.212;5.660;2022-12-29T10:50:56;9.00;99.90
52495;DHT22;38405;53.212;5.660;2022-12-29T10:53:26;9.10;99.90
52495;DHT22;38405;53.212;5.660;2022-12-29T10:55:53;9.10;99.90
52495;DHT22;38405;53.212;5.660;2022-12-29T10:58:20;9.20;99.90
52495;DHT22;38405;53.212;5.660;2022-12-29T11:00:52;9.30;99.90
52495;DHT22;38405;53.212;5.660;2022-12-29T11:06:18;9.20;99.90
52495;DHT22;38405;53.212;5.660;2022-12-29T11:08:55;9.20;99.90
52495;DHT22;38405;53.212;5.660;2022-12-29T11:11:24;9.20;99.90
52495;DHT22;38405;53.212;5.660;2022-12-29T11:14:02;9.20;99.90
52495;DHT22;38405;53.212;5.660;2022-12-29T11:16:33;9.30;99.90
52495;DHT22;38405;53.212;5.660;2022-12-29T11:19:00;9.40;99.90
52495;DHT22;38405;53.212;5.660;2022-12-29T11:21:39;9.50;99.90
52495;DHT22;38405;53.212;5.660;2022-12-29T11:24:22;9.60;99.90
52495;DHT22;38405;53.212;5.660;2022-12-29T11:26:50;9.80;99.90
52495;DHT22;38405;53.212;5.660;2022-12-29T11:29:24;9.90;99.90
52495;DHT22;38405;53.212;5.660;2022-12-29T11:31:58;9.90;99.90
52495;DHT22;38405;53.212;5.660;2022-12-29T11:34:35;10.00;99.90
52495;DHT22;38405;53.212;5.660;2022-12-29T11:39:59;10.20;99.90
52495;DHT22;38405;53.212;5.660;2022-12-29T11:42:38;10.20;99.90
52495;DHT22;38405;53.212;5.660;2022-12-29T11:45:30;10.30;99.90
52495;DHT22;38405;53.212;5.660;2022-12-29T11:48:13;10.30;99.90
52495;DHT22;38405;53.212;5.660;2022-12-29T11:50:43;10.30;99.90
52495;DHT22;38405;53.212;5.660;2022-12-29T11:53:21;10.30;99.90
52495;DHT22;38405;53.212;5.660;2022-12-29T11:55:57;10.30;99.90
52495;DHT22;38405;53.212;5.660;2022-12-29T11:58:34;10.30;99.90
52495;DHT22;38405;53.212;5.660;2022-12-29T12:01:14;10.30;99.90
52495;DHT22;38405;53.212;5.660;2022-12-29T12:03:46;10.20;99.90
52495;DHT22;38405;53.212;5.660;2022-12-29T12:06:16;10.30;99.90
52495;DHT22;38405;53.212;5.660;2022-12-29T12:08:57;10.20;99.90
52495;DHT22;38405;53.212;5.660;2022-12-29T12:11:32;10.20;99.90
52495;DHT22;38405;53.212;5.660;2022-12-29T12:14:15;10.30;99.90
52495;DHT22;38405;53.212;5.660;2022-12-29T12:16:47;10.20;99.90
52495;DHT22;38405;53.212;5.660;2022-12-29T12:19:37;10.20;99.90
52495;DHT22;38405;53.212;5.660;2022-12-29T12:27:52;10.20;99.90
52495;DHT22;38405;53.212;5.660;2022-12-29T12:30:20;10.20;99.90
52495;DHT22;38405;53.212;5.660;2022-12-29T12:33:10;10.20;99.90
52495;DHT22;38405;53.212;5.660;2022-12-29T12:41:17;10.10;99.90
52495;DHT22;38405;53.212;5.660;2022-12-29T12:46:41;10.10;99.90
52495;DHT22;38405;53.212;5.660;2022-12-29T12:57:01;10.00;99.90
52495;DHT22;38405;53.212;5.660;2022-12-29T13:30:22;9.50;99.90
52495;DHT22;38405;53.212;5.660;2022-12-29T13:35:45;9.30;99.90
52495;DHT22;38405;53.212;5.660;2022-12-29T13:38:14;9.30;99.90
52495;DHT22;38405;53.212;5.660;2022-12-29T13:40:45;9.20;99.90
52495;DHT22;38405;53.212;5.660;2022-12-29T13:43:13;9.30;99.90
52495;DHT22;38405;53.212;5.660;2022-12-29T13:45:40;9.20;99.90
52495;DHT22;38405;53.212;5.660;2022-12-29T13:48:21;9.30;99.90
52495;DHT22;38405;53.212;5.660;2022-12-29T13:50:57;9.20;99.90
52495;DHT22;38405;53.212;5.660;2022-12-29T13:53:40;9.20;99.90
52495;DHT22;38405;53.212;5.660;2022-12-29T13:56:12;9.20;99.90
52495;DHT22;38405;53.212;5.660;2022-12-29T14:02:19;9.10;99.90
52495;DHT22;38405;53.212;5.660;2022-12-29T14:05:02;9.00;99.90
52495;DHT22;38405;53.212;5.660;2022-12-29T14:07:29;8.90;99.90
52495;DHT22;38405;53.212;5.660;2022-12-29T14:09:56;8.70;99.90
52495;DHT22;38405;53.212;5.660;2022-12-29T14:12:36;8.60;99.90
52495;DHT22;38405;53.212;5.660;2022-12-29T14:17:32;8.50;99.90
52495;DHT22;38405;53.212;5.660;2022-12-29T14:19:57;8.50;99.90
52495;DHT22;38405;53.212;5.660;2022-12-29T14:22:25;8.40;99.90
52495;DHT22;38405;53.212;5.660;2022-12-29T14:24:51;8.40;99.90
52495;DHT22;38405;53.212;5.660;2022-12-29T14:29:50;8.60;99.90
52495;DHT22;38405;53.212;5.660;2022-12-29T14:34:55;8.30;99.90
52495;DHT22;38405;53.212;5.660;2022-12-29T14:42:49;8.30;99.90
52495;DHT22;38405;53.212;5.660;2022-12-29T14:47:47;8.20;99.90
52495;DHT22;38405;53.212;5.660;2022-12-29T14:50:14;8.20;99.90
52495;DHT22;38405;53.212;5.660;2022-12-29T14:58:01;8.20;99.90
52495;DHT22;38405;53.212;5.660;2022-12-29T15:00:35;8.20;99.90
52495;DHT22;38405;53.212;5.660;2022-12-29T15:03:06;8.20;99.90
52495;DHT22;38405;53.212;5.660;2022-12-29T15:08:20;8.30;99.90
52495;DHT22;38405;53.212;5.660;2022-12-29T15:11:11;8.30;99.90
52495;DHT22;38405;53.212;5.660;2022-12-29T15:13:41;8.30;99.90
52495;DHT22;38405;53.212;5.660;2022-12-29T15:16:30;8.30;99.90
52495;DHT22;38405;53.212;5.660;2022-12-29T15:18:57;8.30;99.90
52495;DHT22;38405;53.212;5.660;2022-12-29T15:21:30;8.30;99.90
52495;DHT22;38405;53.212;5.660;2022-12-29T15:23:57;8.30;99.90
52495;DHT22;38405;53.212;5.660;2022-12-29T15:26:23;8.30;99.90
52495;DHT22;38405;53.212;5.660;2022-12-29T15:29:01;8.30;99.90
52495;DHT22;38405;53.212;5.660;2022-12-29T15:31:26;8.30;99.90
52495;DHT22;38405;53.212;5.660;2022-12-29T15:33:54;8.20;99.90
52495;DHT22;38405;53.212;5.660;2022-12-29T15:36:23;8.40;99.90
52495;DHT22;38405;53.212;5.660;2022-12-29T15:38:49;8.30;99.90
52495;DHT22;38405;53.212;5.660;2022-12-29T15:44:12;8.30;99.90
52495;DHT22;38405;53.212;5.660;2022-12-29T15:46:41;8.30;99.90
52495;DHT22;38405;53.212;5.660;2022-12-29T15:49:08;8.30;99.90
52495;DHT22;38405;53.212;5.660;2022-12-29T15:51:38;8.30;99.90
52495;DHT22;38405;53.212;5.660;2022-12-29T15:54:06;8.20;99.90
52495;DHT22;38405;53.212;5.660;2022-12-29T15:56:33;8.10;99.90
52495;DHT22;38405;53.212;5.660;2022-12-29T15:59:00;8.00;99.90
52495;DHT22;38405;53.212;5.660;2022-12-29T16:01:32;8.00;99.90
52495;DHT22;38405;53.212;5.660;2022-12-29T16:04:03;7.90;99.90
52495;DHT22;38405;53.212;5.660;2022-12-29T16:06:34;7.80;99.90
52495;DHT22;38405;53.212;5.660;2022-12-29T16:09:02;7.80;99.90
52495;DHT22;38405;53.212;5.660;2022-12-29T16:11:37;7.80;99.90
52495;DHT22;38405;53.212;5.660;2022-12-29T16:14:15;7.80;99.90
52495;DHT22;38405;53.212;5.660;2022-12-29T16:16:43;7.70;99.90
52495;DHT22;38405;53.212;5.660;2022-12-29T16:21:52;7.70;99.90
52495;DHT22;38405;53.212;5.660;2022-12-29T16:24:23;7.70;99.90
52495;DHT22;38405;53.212;5.660;2022-12-29T16:27:01;7.70;99.90
52495;DHT22;38405;53.212;5.660;2022-12-29T16:29:29;7.70;99.90
52495;DHT22;38405;53.212;5.660;2022-12-29T16:31:57;7.70;99.90
52495;DHT22;38405;53.212;5.660;2022-12-29T16:34:43;7.70;99.90
52495;DHT22;38405;53.212;5.660;2022-12-29T16:39:44;7.90;99.90
52495;DHT22;38405;53.212;5.660;2022-12-29T16:50:37;7.70;99.90
52495;DHT22;38405;53.212;5.660;2022-12-29T16:53:05;7.60;99.90
52495;DHT22;38405;53.212;5.660;2022-12-29T16:55:32;7.50;99.90
52495;DHT22;38405;53.212;5.660;2022-12-29T16:57:58;7.60;99.90
52495;DHT22;38405;53.212;5.660;2022-12-29T17:00:26;7.60;99.90
52495;DHT22;38405;53.212;5.660;2022-12-29T17:02:55;7.60;99.90
52495;DHT22;38405;53.212;5.660;2022-12-29T17:05:21;7.60;99.90
52495;DHT22;38405;53.212;5.660;2022-12-29T17:07:47;7.60;99.90
52495;DHT22;38405;53.212;5.660;2022-12-29T17:10:14;7.60;99.90
52495;DHT22;38405;53.212;5.660;2022-12-29T17:12:41;7.60;99.90
52495;DHT22;38405;53.212;5.660;2022-12-29T17:17:45;7.60;99.90
52495;DHT22;38405;53.212;5.660;2022-12-29T17:20:20;7.70;99.90
52495;DHT22;38405;53.212;5.660;2022-12-29T17:22:47;7.70;99.90
52495;DHT22;38405;53.212;5.660;2022-12-29T17:25:19;7.60;99.90
52495;DHT22;38405;53.212;5.660;2022-12-29T17:30:45;7.60;99.90
52495;DHT22;38405;53.212;5.660;2022-12-29T17:33:16;7.70;99.90
52495;DHT22;38405;53.212;5.660;2022-12-29T17:35:42;7.70;99.90
52495;DHT22;38405;53.212;5.660;2022-12-29T17:38:29;7.70;99.90
52495;DHT22;38405;53.212;5.660;2022-12-29T17:40:56;7.70;99.90
52495;DHT22;38405;53.212;5.660;2022-12-29T17:43:23;7.70;99.90
52495;DHT22;38405;53.212;5.660;2022-12-29T17:45:54;7.70;99.90
52495;DHT22;38405;53.212;5.660;2022-12-29T17:48:20;7.80;99.90
52495;DHT22;38405;53.212;5.660;2022-12-29T17:50:47;7.70;99.90
52495;DHT22;38405;53.212;5.660;2022-12-29T17:53:18;7.70;99.90
52495;DHT22;38405;53.212;5.660;2022-12-29T17:55:44;7.70;99.90
52495;DHT22;38405;53.212;5.660;2022-12-29T17:58:31;7.80;99.90
52495;DHT22;38405;53.212;5.660;2022-12-29T18:00:59;7.90;99.90
52495;DHT22;38405;53.212;5.660;2022-12-29T18:03:32;7.70;99.90
52495;DHT22;38405;53.212;5.660;2022-12-29T18:05:59;7.90;99.90
52495;DHT22;38405;53.212;5.660;2022-12-29T18:08:25;7.70;99.90
52495;DHT22;38405;53.212;5.660;2022-12-29T18:10:53;7.70;99.90
52495;DHT22;38405;53.212;5.660;2022-12-29T18:13:28;7.70;99.90
52495;DHT22;38405;53.212;5.660;2022-12-29T18:15:55;7.50;99.90
52495;DHT22;38405;53.212;5.660;2022-12-29T18:18:25;7.50;99.90
52495;DHT22;38405;53.212;5.660;2022-12-29T18:20:55;7.40;99.90
52495;DHT22;38405;53.212;5.660;2022-12-29T18:23:30;7.40;99.90
52495;DHT22;38405;53.212;5.660;2022-12-29T18:26:03;7.40;99.90
52495;DHT22;38405;53.212;5.660;2022-12-29T18:28:30;7.50;99.90
52495;DHT22;38405;53.212;5.660;2022-12-29T18:30:58;7.50;99.90
52495;DHT22;38405;53.212;5.660;2022-12-29T18:33:24;7.50;99.90
52495;DHT22;38405;53.212;5.660;2022-12-29T18:36:01;7.60;99.90
52495;DHT22;38405;53.212;5.660;2022-12-29T18:38:28;7.50;99.90
52495;DHT22;38405;53.212;5.660;2022-12-29T18:40:55;7.50;99.90
52495;DHT22;38405;53.212;5.660;2022-12-29T18:43:21;7.30;99.90
52495;DHT22;38405;53.212;5.660;2022-12-29T18:45:47;7.30;99.90
52495;DHT22;38405;53.212;5.660;2022-12-29T18:48:17;7.30;99.90